createdAt,value
2022-10-12T00:00:52.088Z,25.23
2022-10-12T00:03:35.033Z,23.60
2022-10-12T00:06:05.512Z,24.90
2022-10-12T00:08:34.310Z,26.63
2022-10-12T00:11:02.623Z,23.35
2022-10-12T00:13:32.505Z,26.95
2022-10-12T00:16:03.747Z,20.73
2022-10-12T00:21:04.185Z,28.05
2022-10-12T00:23:32.985Z,35.40
2022-10-12T00:26:05.311Z,33.50
2022-10-12T00:28:35.401Z,27.80
2022-10-12T00:31:03.851Z,27.40
2022-10-12T00:33:32.132Z,24.77
2022-10-12T00:36:00.360Z,24.15
2022-10-12T00:38:28.479Z,26.77
2022-10-12T00:40:56.866Z,27.95
2022-10-12T00:43:27.431Z,28.02
2022-10-12T00:45:57.239Z,22.80
2022-10-12T00:48:25.997Z,24.65
2022-10-12T00:50:54.613Z,26.08
2022-10-12T00:53:25.033Z,29.38
2022-10-12T00:55:59.341Z,30.48
2022-10-12T00:58:28.934Z,36.85
2022-10-12T01:00:58.699Z,51.67
2022-10-12T01:03:27.380Z,48.88
2022-10-12T01:05:55.633Z,61.05
2022-10-12T01:08:24.105Z,60.63
2022-10-12T01:10:52.456Z,61.92
2022-10-12T01:13:20.863Z,52.97
2022-10-12T01:15:55.649Z,54.45
2022-10-12T01:18:28.987Z,58.13
2022-10-12T01:21:08.008Z,62.10
2022-10-12T01:23:50.034Z,56.90
2022-10-12T01:26:41.702Z,52.38
2022-10-12T01:29:24.241Z,55.67
2022-10-12T01:31:59.887Z,48.45
2022-10-12T01:34:30.953Z,52.55
2022-10-12T01:37:03.478Z,58.20
2022-10-12T01:39:36.111Z,57.17
2022-10-12T01:42:08.156Z,57.90
2022-10-12T01:44:40.532Z,53.22
2022-10-12T01:47:12.169Z,61.25
2022-10-12T01:49:40.622Z,56.47
2022-10-12T01:52:28.932Z,66.13
2022-10-12T01:55:07.541Z,59.90
2022-10-12T01:57:43.506Z,54.65
2022-10-12T02:00:13.652Z,54.42
2022-10-12T02:02:51.828Z,61.38
2022-10-12T02:05:26.312Z,66.95
2022-10-12T02:07:57.264Z,62.42
2022-10-12T02:10:29.042Z,69.40
2022-10-12T02:12:59.236Z,66.88
2022-10-12T02:15:28.441Z,69.07
2022-10-12T02:17:59.051Z,70.88
2022-10-12T02:20:28.176Z,67.35
2022-10-12T02:22:56.853Z,64.35
2022-10-12T02:25:27.104Z,67.57
2022-10-12T02:27:58.696Z,68.43
2022-10-12T02:30:27.151Z,71.57
2022-10-12T02:33:00.836Z,72.88
2022-10-12T02:35:34.099Z,62.25
2022-10-12T02:38:04.823Z,62.22
2022-10-12T02:40:36.005Z,62.83
2022-10-12T02:45:39.936Z,67.43
2022-10-12T02:48:10.752Z,65.30
2022-10-12T02:50:38.995Z,67.57
2022-10-12T02:53:07.399Z,59.95
2022-10-12T02:55:39.594Z,62.90
2022-10-12T02:58:07.705Z,63.60
2022-10-12T03:00:35.948Z,57.72
2022-10-12T03:03:04.320Z,58.42
2022-10-12T03:05:33.908Z,62.10
2022-10-12T03:08:01.977Z,60.30
2022-10-12T03:10:30.285Z,58.83
2022-10-12T03:12:58.356Z,59.25
2022-10-12T03:15:26.546Z,64.45
2022-10-12T03:17:54.819Z,64.47
2022-10-12T03:20:23.112Z,59.55
2022-10-12T03:22:53.448Z,53.00
2022-10-12T03:25:21.816Z,57.28
2022-10-12T03:27:50.040Z,56.95
2022-10-12T03:30:18.244Z,63.92
2022-10-12T03:32:46.601Z,64.68
2022-10-12T03:35:14.716Z,68.68
2022-10-12T03:37:42.921Z,75.43
2022-10-12T03:40:13.982Z,76.45
2022-10-12T03:42:42.128Z,72.72
2022-10-12T03:45:11.119Z,77.43
2022-10-12T03:47:39.935Z,75.53
2022-10-12T03:50:09.121Z,75.60
2022-10-12T03:52:37.326Z,71.53
2022-10-12T03:55:06.203Z,66.35
2022-10-12T03:57:36.007Z,68.60
2022-10-12T04:00:05.762Z,63.60
2022-10-12T04:02:34.021Z,66.40
2022-10-12T04:05:02.239Z,66.13
2022-10-12T04:07:30.536Z,64.45
2022-10-12T04:09:58.793Z,65.75
2022-10-12T04:12:27.113Z,60.28
2022-10-12T04:14:56.812Z,69.15
2022-10-12T04:17:24.929Z,74.15
2022-10-12T04:19:53.234Z,76.10
2022-10-12T04:22:21.299Z,73.47
2022-10-12T04:24:49.418Z,87.30
2022-10-12T04:27:17.671Z,82.50
2022-10-12T04:29:45.746Z,83.38
2022-10-12T04:32:15.260Z,83.50
2022-10-12T04:34:43.582Z,90.70
2022-10-12T04:37:11.687Z,83.68
2022-10-12T04:39:40.090Z,73.07
2022-10-12T04:42:08.302Z,74.53
2022-10-12T04:44:36.707Z,78.53
2022-10-12T04:47:04.967Z,82.32
2022-10-12T04:49:34.805Z,136.93
2022-10-12T04:52:02.918Z,117.32
2022-10-12T04:54:32.925Z,97.18
2022-10-12T04:57:01.839Z,92.45
2022-10-12T04:59:30.346Z,70.15
2022-10-12T05:01:58.529Z,71.30
2022-10-12T05:04:26.736Z,62.78
2022-10-12T05:06:56.392Z,84.68
2022-10-12T05:09:24.521Z,78.93
2022-10-12T05:11:52.718Z,72.05
2022-10-12T05:14:20.890Z,61.25
2022-10-12T05:16:49.364Z,58.80
2022-10-12T05:19:17.499Z,75.75
2022-10-12T05:21:45.722Z,72.97
2022-10-12T05:24:15.508Z,102.95
2022-10-12T05:26:43.839Z,86.22
2022-10-12T05:29:12.038Z,89.35
2022-10-12T05:31:40.354Z,84.88
2022-10-12T05:34:08.685Z,90.22
2022-10-12T05:36:37.306Z,80.40
2022-10-12T05:39:05.482Z,91.00
2022-10-12T05:41:35.252Z,79.50
2022-10-12T05:44:03.527Z,76.13
2022-10-12T05:46:31.808Z,92.63
2022-10-12T05:48:59.926Z,87.63
2022-10-12T05:51:29.148Z,74.93
2022-10-12T05:53:57.374Z,78.35
2022-10-12T05:56:25.740Z,85.93
2022-10-12T05:58:55.406Z,75.78
2022-10-12T06:01:23.885Z,78.15
2022-10-12T06:03:53.441Z,69.20
2022-10-12T06:06:22.026Z,62.42
2022-10-12T06:08:50.141Z,62.13
2022-10-12T06:11:18.492Z,62.40
2022-10-12T06:13:46.612Z,65.45
2022-10-12T06:16:16.403Z,55.63
2022-10-12T06:18:44.484Z,63.25
2022-10-12T06:24:01.224Z,56.13
2022-10-12T06:26:29.646Z,53.45
2022-10-12T06:28:58.011Z,52.50
2022-10-12T06:31:28.233Z,52.72
2022-10-12T06:33:56.352Z,53.75
2022-10-12T06:36:24.652Z,75.70
2022-10-12T06:38:53.417Z,44.42
2022-10-12T06:41:21.771Z,39.60
2022-10-12T06:43:49.980Z,38.10
2022-10-12T06:46:18.637Z,39.63
2022-10-12T06:48:48.092Z,41.80
2022-10-12T06:51:16.514Z,41.92
2022-10-12T06:53:44.552Z,48.42
2022-10-12T06:56:13.852Z,43.40
2022-10-12T06:58:42.193Z,49.42
2022-10-12T07:01:11.165Z,51.72
2022-10-12T07:03:39.479Z,58.08
2022-10-12T07:06:11.857Z,47.60
2022-10-12T07:08:41.179Z,42.67
2022-10-12T07:11:11.930Z,45.72
2022-10-12T07:13:40.365Z,40.83
2022-10-12T07:16:09.337Z,50.63
2022-10-12T07:18:37.525Z,51.15
2022-10-12T07:21:06.091Z,42.70
2022-10-12T07:23:41.359Z,48.35
2022-10-12T07:26:13.377Z,41.78
2022-10-12T07:28:41.802Z,48.58
2022-10-12T07:31:10.777Z,49.30
2022-10-12T07:33:39.733Z,43.70
2022-10-12T07:36:21.384Z,47.65
2022-10-12T07:38:51.728Z,41.78
2022-10-12T07:41:20.131Z,35.63
2022-10-12T07:43:48.333Z,33.30
2022-10-12T07:46:16.613Z,36.97
2022-10-12T07:48:49.966Z,31.30
2022-10-12T07:51:18.993Z,39.42
2022-10-12T07:53:47.337Z,41.40
2022-10-12T07:56:17.097Z,38.47
2022-10-12T07:58:49.936Z,36.83
2022-10-12T08:01:19.268Z,39.05
2022-10-12T08:03:47.663Z,35.65
2022-10-12T08:06:17.425Z,30.98
2022-10-12T08:08:46.209Z,30.15
2022-10-12T08:11:16.068Z,30.15
2022-10-12T08:13:44.752Z,29.33
2022-10-12T08:16:15.531Z,28.67
2022-10-12T08:18:44.445Z,27.55
2022-10-12T08:21:16.559Z,32.88
2022-10-12T08:23:45.641Z,25.77
2022-10-12T08:26:16.899Z,25.98
2022-10-12T08:28:45.525Z,26.20
2022-10-12T08:31:16.583Z,24.92
2022-10-12T08:33:45.175Z,23.20
2022-10-12T08:36:14.378Z,27.48
2022-10-12T08:38:43.632Z,31.05
2022-10-12T08:41:22.639Z,28.25
2022-10-12T08:44:01.449Z,22.42
2022-10-12T08:46:30.453Z,26.00
2022-10-12T08:49:00.877Z,21.48
2022-10-12T08:51:31.712Z,26.30
2022-10-12T08:54:03.843Z,22.83
2022-10-12T08:56:35.014Z,21.25
2022-10-12T08:59:03.933Z,16.00
2022-10-12T09:01:37.477Z,22.17
2022-10-12T09:04:13.448Z,22.05
2022-10-12T09:06:46.648Z,15.10
2022-10-12T09:09:34.667Z,17.48
2022-10-12T09:12:11.134Z,22.15
2022-10-12T09:14:40.514Z,13.90
2022-10-12T09:17:23.496Z,11.82
2022-10-12T09:19:59.792Z,12.55
2022-10-12T09:22:29.181Z,9.15
2022-10-12T09:24:58.750Z,9.40
2022-10-12T09:27:31.304Z,9.93
2022-10-12T09:30:03.202Z,12.15
2022-10-12T09:32:42.013Z,10.48
2022-10-12T09:35:13.409Z,14.05
2022-10-12T09:37:42.040Z,14.35
2022-10-12T09:40:18.575Z,13.77
2022-10-12T09:42:48.884Z,7.40
2022-10-12T09:45:19.849Z,6.78
2022-10-12T09:48:16.457Z,8.90
2022-10-12T09:50:47.156Z,10.98
2022-10-12T09:53:32.427Z,8.57
2022-10-12T09:56:04.085Z,15.18
2022-10-12T09:58:39.073Z,10.77
2022-10-12T10:01:28.316Z,10.68
2022-10-12T10:04:12.596Z,7.72
2022-10-12T10:06:42.100Z,11.55
2022-10-12T10:09:28.423Z,9.83
2022-10-12T10:11:56.877Z,10.68
2022-10-12T10:14:26.669Z,8.38
2022-10-12T10:16:55.774Z,9.13
2022-10-12T10:19:26.613Z,10.27
2022-10-12T10:21:55.970Z,9.30
2022-10-12T10:24:29.568Z,8.87
2022-10-12T10:26:59.983Z,12.15
2022-10-12T10:29:36.229Z,10.48
2022-10-12T10:32:24.183Z,9.57
2022-10-12T10:35:03.215Z,8.75
2022-10-12T10:37:32.044Z,7.35
2022-10-12T10:40:00.970Z,6.47
2022-10-12T10:42:31.696Z,6.75
2022-10-12T10:45:02.935Z,7.85
2022-10-12T10:47:33.190Z,5.82
2022-10-12T10:50:03.091Z,5.82
2022-10-12T10:52:32.648Z,8.27
2022-10-12T10:55:17.235Z,9.07
2022-10-12T10:57:49.591Z,6.20
2022-10-12T11:03:14.613Z,10.07
2022-10-12T11:05:46.182Z,7.88
2022-10-12T11:08:17.247Z,8.95
2022-10-12T11:10:49.766Z,10.68
2022-10-12T11:13:20.508Z,6.13
2022-10-12T11:15:51.732Z,8.77
2022-10-12T11:18:24.807Z,8.95
2022-10-12T11:20:56.462Z,10.07
2022-10-12T11:23:42.012Z,8.23
2022-10-12T11:26:14.877Z,8.65
2022-10-12T11:28:43.329Z,7.90
2022-10-12T11:31:20.171Z,6.82
2022-10-12T11:33:49.496Z,8.40
2022-10-12T11:36:20.608Z,7.22
2022-10-12T11:38:52.105Z,8.00
2022-10-12T11:41:37.767Z,6.80
2022-10-12T11:44:11.006Z,6.82
2022-10-12T11:46:46.050Z,6.88
2022-10-12T11:49:17.638Z,7.78
2022-10-12T11:51:48.067Z,7.25
2022-10-12T11:54:21.160Z,14.18
2022-10-12T11:56:51.596Z,8.85
2022-10-12T11:59:25.936Z,14.43
2022-10-12T12:02:02.671Z,6.40
2022-10-12T12:04:47.819Z,14.50
2022-10-12T12:07:56.797Z,9.07
2022-10-12T12:10:54.309Z,8.38
2022-10-12T12:13:27.087Z,6.05
2022-10-12T12:16:34.390Z,11.50
2022-10-12T12:19:42.630Z,10.95
2022-10-12T12:22:23.724Z,10.13
2022-10-12T12:24:58.214Z,6.77
2022-10-12T12:27:33.341Z,7.32
2022-10-12T12:30:03.139Z,7.35
2022-10-12T12:32:43.875Z,13.43
2022-10-12T12:35:23.289Z,5.83
2022-10-12T12:38:17.312Z,6.32
2022-10-12T12:41:00.509Z,7.65
2022-10-12T12:43:59.632Z,7.65
2022-10-12T12:50:02.571Z,6.80
2022-10-12T12:52:34.987Z,9.50
2022-10-12T12:55:20.479Z,11.25
2022-10-12T12:58:06.014Z,8.57
2022-10-12T13:00:39.067Z,9.68
2022-10-12T13:03:24.958Z,6.05
2022-10-12T13:06:30.060Z,9.18
2022-10-12T13:09:20.597Z,7.25
2022-10-12T13:12:09.701Z,4.53
2022-10-12T13:14:50.670Z,6.88
2022-10-12T13:20:17.354Z,8.45
2022-10-12T13:22:46.811Z,7.80
2022-10-12T13:25:21.870Z,11.30
2022-10-12T13:27:52.294Z,5.78
2022-10-12T13:30:26.141Z,6.53
2022-10-12T13:32:58.082Z,6.20
2022-10-12T13:35:32.399Z,5.90
2022-10-12T13:38:02.485Z,8.68
2022-10-12T13:40:34.925Z,6.00
2022-10-12T13:43:35.489Z,6.88
2022-10-12T13:46:04.609Z,5.00
2022-10-12T13:48:58.788Z,11.48
2022-10-12T13:51:26.589Z,6.45
2022-10-12T13:53:55.180Z,6.05
2022-10-12T13:56:26.837Z,11.10
2022-10-12T13:58:59.058Z,10.10
2022-10-12T14:01:27.550Z,7.40
2022-10-12T14:04:03.654Z,11.40
2022-10-12T14:06:34.803Z,14.68
2022-10-12T14:09:08.998Z,18.20
2022-10-12T14:11:38.849Z,13.45
2022-10-12T14:14:07.740Z,10.57
2022-10-12T14:16:35.899Z,10.40
2022-10-12T14:19:19.887Z,6.82
2022-10-12T14:21:49.148Z,11.77
2022-10-12T14:24:19.911Z,7.78
2022-10-12T14:26:56.025Z,12.43
2022-10-12T14:29:32.237Z,9.25
2022-10-12T14:32:02.092Z,13.48
2022-10-12T14:34:40.473Z,8.38
2022-10-12T14:37:29.936Z,5.85
2022-10-12T14:40:02.625Z,10.15
2022-10-12T14:42:34.433Z,11.70
2022-10-12T14:45:04.893Z,8.65
2022-10-12T14:47:34.845Z,5.80
2022-10-12T14:50:08.253Z,8.40
2022-10-12T14:52:39.675Z,15.57
2022-10-12T14:55:11.364Z,10.70
2022-10-12T14:57:41.277Z,9.60
2022-10-12T15:00:10.254Z,11.35
2022-10-12T15:02:40.265Z,12.77
2022-10-12T15:05:10.484Z,9.80
2022-10-12T15:07:38.811Z,9.75
2022-10-12T15:10:08.061Z,13.70
2022-10-12T15:12:36.649Z,10.40
2022-10-12T15:15:24.279Z,14.43
2022-10-12T15:17:56.284Z,11.10
2022-10-12T15:20:24.601Z,7.90
2022-10-12T15:22:52.863Z,10.27
2022-10-12T15:25:24.435Z,18.08
2022-10-12T15:27:52.849Z,13.15
2022-10-12T15:30:22.736Z,16.15
2022-10-12T15:32:51.489Z,11.40
2022-10-12T15:35:24.639Z,13.27
2022-10-12T15:37:56.286Z,17.15
2022-10-12T15:40:25.657Z,13.02
2022-10-12T15:42:53.834Z,17.05
2022-10-12T15:45:25.120Z,12.73
2022-10-12T15:47:54.281Z,14.98
2022-10-12T15:50:24.833Z,14.20
2022-10-12T15:52:54.309Z,12.88
2022-10-12T15:55:25.016Z,10.93
2022-10-12T15:57:53.515Z,10.60
2022-10-12T16:00:26.048Z,15.80
2022-10-12T16:02:54.648Z,16.48
2022-10-12T16:05:24.324Z,14.60
2022-10-12T16:07:52.979Z,17.33
2022-10-12T16:10:23.803Z,15.77
2022-10-12T16:12:53.727Z,13.48
2022-10-12T16:15:24.862Z,16.90
2022-10-12T16:17:53.254Z,19.15
2022-10-12T16:20:21.607Z,19.98
2022-10-12T16:22:50.254Z,23.60
2022-10-12T16:25:21.594Z,19.23
2022-10-12T16:27:49.941Z,19.00
2022-10-12T16:30:18.452Z,19.95
2022-10-12T16:32:48.080Z,22.90
2022-10-12T16:35:16.655Z,21.65
2022-10-12T16:37:45.022Z,19.23
2022-10-12T16:40:13.964Z,22.90
2022-10-12T16:42:42.343Z,22.27
2022-10-12T16:45:11.389Z,27.08
2022-10-12T16:47:42.795Z,28.65
2022-10-12T16:50:13.049Z,20.63
2022-10-12T16:52:41.540Z,23.00
2022-10-12T16:55:10.645Z,25.05
2022-10-12T16:57:39.033Z,23.08
2022-10-12T17:00:08.468Z,18.58
2022-10-12T17:02:36.840Z,15.63
2022-10-12T17:05:05.620Z,18.02
2022-10-12T17:07:35.488Z,17.77
2022-10-12T17:10:03.614Z,16.48
2022-10-12T17:12:31.973Z,20.02
2022-10-12T17:15:00.139Z,21.83
2022-10-12T17:17:28.562Z,25.33
2022-10-12T17:19:56.810Z,20.27
2022-10-12T17:22:25.374Z,24.35
2022-10-12T17:24:54.918Z,34.58
2022-10-12T17:27:23.184Z,40.65
2022-10-12T17:29:51.277Z,28.92
2022-10-12T17:32:19.958Z,51.20
2022-10-12T17:34:48.208Z,46.17
2022-10-12T17:37:16.982Z,31.80
2022-10-12T17:39:48.023Z,47.28
2022-10-12T17:42:18.954Z,44.42
2022-10-12T17:44:47.522Z,44.97
2022-10-12T17:47:16.338Z,33.55
2022-10-12T17:49:44.830Z,45.03
2022-10-12T17:52:13.432Z,43.20
2022-10-12T17:54:41.836Z,41.03
2022-10-12T17:57:10.228Z,33.00
2022-10-12T17:59:40.244Z,37.33
2022-10-12T18:02:09.756Z,32.40
2022-10-12T18:04:38.700Z,44.47
2022-10-12T18:07:06.926Z,34.72
2022-10-12T18:09:35.035Z,34.95
2022-10-12T18:12:03.468Z,34.15
2022-10-12T18:14:31.592Z,32.35
2022-10-12T18:17:01.474Z,34.08
2022-10-12T18:19:30.095Z,28.45
2022-10-12T18:21:58.246Z,32.33
2022-10-12T18:24:26.316Z,32.25
2022-10-12T18:26:54.798Z,36.08
2022-10-12T18:29:23.009Z,44.50
2022-10-12T18:31:51.241Z,36.30
2022-10-12T18:34:20.935Z,32.78
2022-10-12T18:36:49.127Z,32.00
2022-10-12T18:39:17.634Z,42.65
2022-10-12T18:41:45.808Z,37.45
2022-10-12T18:44:15.129Z,33.95
2022-10-12T18:46:43.410Z,39.72
2022-10-12T18:49:12.300Z,68.63
2022-10-12T18:51:43.612Z,47.75
2022-10-12T18:56:41.835Z,48.10
2022-10-12T18:59:11.658Z,48.90
2022-10-12T19:01:39.820Z,47.20
2022-10-12T19:04:08.227Z,48.83
2022-10-12T19:06:39.031Z,44.33
2022-10-12T19:09:08.878Z,47.10
2022-10-12T19:11:37.691Z,46.22
2022-10-12T19:14:08.250Z,50.28
2022-10-12T19:16:37.010Z,43.00
2022-10-12T19:19:11.835Z,56.72
2022-10-12T19:21:40.558Z,48.03
2022-10-12T19:24:12.629Z,43.25
2022-10-12T19:26:41.079Z,42.97
2022-10-12T19:29:09.714Z,39.97
2022-10-12T19:31:39.588Z,45.50
2022-10-12T19:34:10.550Z,44.85
2022-10-12T19:36:40.222Z,44.30
2022-10-12T19:39:13.517Z,44.05
2022-10-12T19:41:41.875Z,45.92
2022-10-12T19:44:11.863Z,45.03
2022-10-12T19:46:40.604Z,44.47
2022-10-12T19:49:08.994Z,46.35
2022-10-12T19:51:37.115Z,50.85
2022-10-12T19:54:05.602Z,56.42
2022-10-12T19:56:35.314Z,60.65
2022-10-12T19:59:03.778Z,61.35
2022-10-12T20:01:34.857Z,66.35
2022-10-12T20:04:06.744Z,62.25
2022-10-12T20:06:35.296Z,62.72
2022-10-12T20:09:03.463Z,64.80
2022-10-12T20:11:32.101Z,65.45
2022-10-12T20:14:01.853Z,56.40
2022-10-12T20:16:34.810Z,54.90
2022-10-12T20:19:04.016Z,74.22
2022-10-12T20:21:32.330Z,48.35
2022-10-12T20:24:00.453Z,55.40
2022-10-12T20:26:29.892Z,53.65
2022-10-12T20:28:58.267Z,48.92
2022-10-12T20:31:29.495Z,48.92
2022-10-12T20:33:58.860Z,55.45
2022-10-12T20:36:28.855Z,55.42
2022-10-12T20:38:58.355Z,47.20
2022-10-12T20:41:27.735Z,57.00
2022-10-12T20:43:57.363Z,53.55
2022-10-12T20:46:27.664Z,46.15
2022-10-12T20:48:58.811Z,54.13
2022-10-12T20:53:59.200Z,51.38
2022-10-12T20:56:27.939Z,46.28
2022-10-12T20:58:56.521Z,49.67
2022-10-12T21:01:25.929Z,51.38
2022-10-12T21:03:56.082Z,56.28
2022-10-12T21:06:24.592Z,54.05
2022-10-12T21:08:53.664Z,56.45
2022-10-12T21:11:22.319Z,56.30
2022-10-12T21:13:51.103Z,68.53
2022-10-12T21:16:19.905Z,60.90
2022-10-12T21:18:48.286Z,68.07
2022-10-12T21:21:19.897Z,69.10
2022-10-12T21:26:23.300Z,69.65
2022-10-12T21:28:51.691Z,69.37
2022-10-12T21:31:21.228Z,74.82
2022-10-12T21:33:49.708Z,81.82
2022-10-12T21:36:20.424Z,80.05
2022-10-12T21:38:49.235Z,81.82
2022-10-12T21:41:18.737Z,83.63
2022-10-12T21:43:48.446Z,91.90
2022-10-12T21:46:18.613Z,89.22
2022-10-12T21:48:47.282Z,96.80
2022-10-12T21:51:15.766Z,91.38
2022-10-12T21:53:45.655Z,90.75
2022-10-12T21:56:16.146Z,107.00
2022-10-12T21:58:44.821Z,103.72
2022-10-12T22:01:14.656Z,98.78
2022-10-12T22:03:43.710Z,92.95
2022-10-12T22:06:14.078Z,84.63
2022-10-12T22:08:42.388Z,89.50
2022-10-12T22:11:13.769Z,81.03
2022-10-12T22:13:42.028Z,95.95
2022-10-12T22:16:12.968Z,81.47
2022-10-12T22:18:41.933Z,81.32
2022-10-12T22:21:12.706Z,80.25
2022-10-12T22:23:41.868Z,79.10
2022-10-12T22:26:13.486Z,85.50
2022-10-12T22:28:41.898Z,76.43
2022-10-12T22:31:11.925Z,87.75
2022-10-12T22:33:40.545Z,80.55
2022-10-12T22:36:09.571Z,79.68
2022-10-12T22:38:37.818Z,76.60
2022-10-12T22:41:07.606Z,74.68
2022-10-12T22:43:37.721Z,73.90
2022-10-12T22:46:06.217Z,74.07
2022-10-12T22:48:35.226Z,82.90
2022-10-12T22:51:04.127Z,80.25
2022-10-12T22:53:32.253Z,74.40
2022-10-12T22:56:02.085Z,73.35
2022-10-12T22:58:30.770Z,74.80
2022-10-12T23:01:04.250Z,71.40
2022-10-12T23:03:33.175Z,73.97
2022-10-12T23:06:01.528Z,70.35
2022-10-12T23:08:30.352Z,70.60
2022-10-12T23:11:04.960Z,70.78
2022-10-12T23:13:33.264Z,70.38
2022-10-12T23:16:07.434Z,67.75
2022-10-12T23:18:36.655Z,71.82
2022-10-12T23:21:06.364Z,72.18
2022-10-12T23:23:34.929Z,69.32
2022-10-12T23:26:04.799Z,77.18
2022-10-12T23:28:33.303Z,78.03
2022-10-12T23:31:03.862Z,79.07
2022-10-12T23:33:33.607Z,74.83
2022-10-12T23:36:03.723Z,73.53
2022-10-12T23:38:33.760Z,77.95
2022-10-12T23:41:02.322Z,74.25
2022-10-12T23:43:30.713Z,77.47
2022-10-12T23:45:58.965Z,76.05
2022-10-12T23:48:27.624Z,77.50
2022-10-12T23:50:57.706Z,79.63
2022-10-12T23:53:26.404Z,79.88
2022-10-12T23:55:54.770Z,78.82
2022-10-12T23:58:23.085Z,76.80
